Air Quality Table

TIMESTAMP NO2 SO2 PM10 PM2.5 CO TEMP HUM AIRPRES WS WD NO
2021-10-17 16:00 8.85 µg/m3 0.46 µg/m3 16.03 µg/m3 5.09 µg/m3 N/A 22.46 °C 59.65 % 1,014.85 mbar 1.97 m/s 349 Deg 1.55 µg/m3
2021-10-17 15:00 10.07 µg/m3 0.44 µg/m3 16.59 µg/m3 5.32 µg/m3 N/A 22.4 °C 61.3 % 1,014.58 mbar 2.16 m/s 345.51 Deg 1.61 µg/m3
2021-10-17 14:00 13.9 µg/m3 0.57 µg/m3 17.82 µg/m3 5.94 µg/m3 N/A 23.12 °C 57.69 % 1,014.91 mbar 3.2 m/s 218.3 Deg 4.85 µg/m3
2021-10-17 13:00 16.74 µg/m3 0.49 µg/m3 16.76 µg/m3 5.83 µg/m3 N/A 22.64 °C 60.58 % 1,015.55 mbar 3.9 m/s 200.7 Deg 8.4 µg/m3
2021-10-17 12:00 29.83 µg/m3 0.62 µg/m3 16.02 µg/m3 5.77 µg/m3 N/A 22.38 °C 62.26 % 1,015.90 mbar 4.52 m/s 199.22 Deg 11.83 µg/m3
2021-10-17 11:00 19.35 µg/m3 0.54 µg/m3 19.17 µg/m3 6.46 µg/m3 N/A 22.13 °C 59.91 % 1,016.10 mbar 4.01 m/s 200.73 Deg 9.96 µg/m3
2021-10-17 10:00 26.13 µg/m3 0.48 µg/m3 17.68 µg/m3 6.73 µg/m3 N/A 21.03 °C 66.11 % 1,016.15 mbar 1.98 m/s 193.69 Deg 5.98 µg/m3
2021-10-17 09:00 78.76 µg/m3 0.94 µg/m3 28.37 µg/m3 13.61 µg/m3 N/A 19.39 °C 73.87 % 1,015.97 mbar 0.84 m/s 190.6 Deg 49.15 µg/m3
2021-10-17 08:00 77.27 µg/m3 1.24 µg/m3 34.18 µg/m3 17.96 µg/m3 N/A 17.57 °C 81.26 % 1,015.52 mbar 1.75 m/s 197.33 Deg 69.2 µg/m3
2021-10-17 07:00 62.18 µg/m3 0.85 µg/m3 26.28 µg/m3 13.25 µg/m3 N/A 16.82 °C 84.07 % 1,015.29 mbar 2.28 m/s 200.29 Deg 46.01 µg/m3
2021-10-17 06:00 61.71 µg/m3 0.78 µg/m3 22.29 µg/m3 11.16 µg/m3 N/A 16.98 °C 84.22 % 1,015.00 mbar 2.29 m/s 199.73 Deg 49.96 µg/m3
2021-10-17 05:00 60.76 µg/m3 0.79 µg/m3 23.26 µg/m3 11.46 µg/m3 N/A 17.52 °C 83.86 % 1,014.92 mbar 1.89 m/s 200.79 Deg 40.75 µg/m3
2021-10-17 04:00 62.47 µg/m3 0.69 µg/m3 25.43 µg/m3 12.15 µg/m3 N/A 18.06 °C 81.44 % 1,015.01 mbar 1.84 m/s 199.86 Deg 38.23 µg/m3
2021-10-17 03:00 60.88 µg/m3 0.7 µg/m3 22.57 µg/m3 10.91 µg/m3 N/A 18.68 °C 80.12 % 1,015.30 mbar 1.97 m/s 201.88 Deg 36.03 µg/m3
2021-10-17 02:00 69.49 µg/m3 0.51 µg/m3 29.79 µg/m3 11.3 µg/m3 N/A 19.55 °C 74.78 % 1,015.46 mbar 1.29 m/s 202.78 Deg 16.84 µg/m3
2021-10-17 01:00 19.23 µg/m3 0.27 µg/m3 17.42 µg/m3 7.4 µg/m3 N/A 19.93 °C 69.43 % 1,015.48 mbar 1.22 m/s 207.33 Deg 0.45 µg/m3
2021-10-17 00:00 20.7 µg/m3 0.31 µg/m3 15.92 µg/m3 6.45 µg/m3 N/A 20.06 °C 69.08 % 1,015.54 mbar 1.7 m/s 220.62 Deg 0.88 µg/m3
2021-10-16 23:00 68.03 µg/m3 0.55 µg/m3 18.73 µg/m3 8.06 µg/m3 N/A 19.78 °C 72.53 % 1,015.64 mbar 1.92 m/s 202.19 Deg 17.17 µg/m3
2021-10-16 22:00 58.9 µg/m3 0.47 µg/m3 19.47 µg/m3 8.19 µg/m3 N/A 19.89 °C 70.51 % 1,015.72 mbar 1.19 m/s 191.33 Deg 5.98 µg/m3
2021-10-16 21:00 33.13 µg/m3 0.52 µg/m3 16.66 µg/m3 6.63 µg/m3 N/A 20.24 °C 66.92 % 1,015.69 mbar 1.3 m/s 253.79 Deg 5.12 µg/m3
2021-10-16 20:00 23.24 µg/m3 0.43 µg/m3 16.8 µg/m3 6.72 µg/m3 N/A 20.42 °C 66.1 % 1,015.35 mbar 1.74 m/s 268.28 Deg 1.04 µg/m3
2021-10-16 19:00 19.59 µg/m3 0.43 µg/m3 15.91 µg/m3 6.21 µg/m3 N/A 20.66 °C 66.95 % 1,014.96 mbar 2.27 m/s 272.38 Deg 2.76 µg/m3

It is to be noted that the data is provisional and subject to quality assurance procedures. For validated data kindly refer your request to contact.air@era.org.mt